Time;durP1;ratioP1;P1;durP2;ratioP2;P2;SDS_P1;SDS_P2;PMS_P1;PMS_P2;Temp;Humidity;BMP_temperature;BMP_pressure;BME280_temperature;BME280_humidity;BME280_pressure;Samples;Min_cycle;Max_cycle;Signal;HPM_P1;HPM_P2
2022/09/15 00:01:26;;;;;;;1.30;1.20;;;22.30;57.30;;;;;;4990450;28;20529;-68
2022/09/15 00:03:52;;;;;;;1.30;1.20;;;22.50;55.80;;;;;;4991865;28;20170;-68
2022/09/15 00:06:19;;;;;;;1.30;1.23;;;22.60;53.40;;;;;;4991404;28;20189;-68
2022/09/15 00:08:45;;;;;;;1.30;1.20;;;22.50;56.30;;;;;;4992322;28;20859;-68
2022/09/15 00:11:16;;;;;;;1.30;1.17;;;22.40;56.20;;;;;;4991398;28;20495;-67
2022/09/15 00:13:43;;;;;;;1.30;1.10;;;22.40;56.50;;;;;;4991797;28;20401;-69
2022/09/15 00:16:09;;;;;;;1.47;1.40;;;22.30;55.90;;;;;;4991104;28;20439;-68
2022/09/15 00:18:36;;;;;;;1.30;1.10;;;22.40;54.00;;;;;;4998480;28;20463;-69
2022/09/15 00:21:11;;;;;;;1.30;1.30;;;22.50;54.80;;;;;;4990403;28;20470;-69
2022/09/15 00:23:37;;;;;;;1.30;1.10;;;22.40;54.50;;;;;;4993907;28;20499;-69
2022/09/15 00:26:07;;;;;;;1.30;1.10;;;22.50;52.50;;;;;;4995570;28;20909;-68
2022/09/15 00:28:33;;;;;;;1.30;1.20;;;22.60;51.20;;;;;;4996869;28;20552;-68
2022/09/15 00:30:58;;;;;;;1.30;1.17;;;22.60;52.80;;;;;;4994362;28;20462;-68
2022/09/15 00:33:24;;;;;;;1.30;1.10;;;22.60;51.70;;;;;;4987429;28;20422;-68
2022/09/15 00:35:52;;;;;;;1.30;1.10;;;22.40;50.30;;;;;;4992015;28;20183;-68
2022/09/15 00:38:18;;;;;;;1.30;1.20;;;22.60;50.00;;;;;;4995568;28;20175;-69
2022/09/15 00:40:52;;;;;;;1.30;1.13;;;22.50;53.40;;;;;;4995094;28;20444;-68
2022/09/15 00:43:38;;;;;;;1.30;1.30;;;22.60;51.70;;;;;;4995042;28;20742;-68
2022/09/15 00:46:03;;;;;;;1.30;1.20;;;22.80;49.60;;;;;;4995539;28;20454;-67
2022/09/15 00:48:29;;;;;;;1.30;1.20;;;22.80;52.20;;;;;;4995377;28;20535;-68
2022/09/15 00:50:57;;;;;;;1.30;1.20;;;22.90;52.10;;;;;;5000177;28;20305;-68
2022/09/15 00:53:24;;;;;;;1.30;1.10;;;22.70;53.10;;;;;;4994040;28;20306;-68
2022/09/15 00:55:51;;;;;;;1.30;1.30;;;22.60;48.30;;;;;;4995395;28;20499;-68
2022/09/15 00:58:27;;;;;;;1.30;1.10;;;22.70;51.20;;;;;;4995277;28;20506;-68
2022/09/15 01:00:59;;;;;;;1.30;1.20;;;22.70;51.90;;;;;;4996221;28;20868;-68
2022/09/15 01:03:27;;;;;;;1.30;1.20;;;22.60;53.10;;;;;;4993769;28;20438;-68
2022/09/15 01:06:14;;;;;;;1.30;1.20;;;22.60;52.60;;;;;;4995005;28;20960;-69
2022/09/15 01:09:20;;;;;;;1.30;1.20;;;22.50;49.50;;;;;;4995048;28;20442;-68
2022/09/15 01:11:46;;;;;;;1.30;1.20;;;22.30;51.80;;;;;;5004409;28;20953;-67
2022/09/15 01:14:11;;;;;;;1.30;1.20;;;22.60;51.40;;;;;;4995308;28;20438;-68
2022/09/15 01:16:59;;;;;;;1.30;1.30;;;22.50;50.50;;;;;;4994892;28;20268;-68
2022/09/15 01:19:46;;;;;;;1.30;1.13;;;22.40;52.40;;;;;;4994968;28;20302;-68
2022/09/15 01:22:43;;;;;;;1.30;1.30;;;22.00;48.80;;;;;;4991524;28;20499;-67
2022/09/15 01:25:27;;;;;;;1.30;1.30;;;21.80;48.60;;;;;;4992820;28;20436;-68
2022/09/15 01:28:10;;;;;;;1.30;1.30;;;21.60;51.30;;;;;;4994400;28;20460;-68
2022/09/15 01:31:02;;;;;;;1.30;1.23;;;21.90;49.50;;;;;;4994841;28;20796;-68
2022/09/15 01:33:43;;;;;;;1.30;1.20;;;22.20;52.70;;;;;;4993381;28;20443;-68
2022/09/15 01:36:12;;;;;;;1.30;1.30;;;22.40;48.80;;;;;;4991462;28;20793;-68
2022/09/15 01:38:59;;;;;;;1.30;1.27;;;22.10;48.40;;;;;;4994431;28;20444;-68
2022/09/15 01:41:25;;;;;;;1.30;1.20;;;21.80;47.50;;;;;;4994127;28;20460;-69
2022/09/15 01:44:09;;;;;;;1.30;1.20;;;21.80;48.20;;;;;;4992603;28;20452;-68
2022/09/15 01:46:40;;;;;;;1.30;1.20;;;21.60;48.00;;;;;;4983383;28;20230;-68
2022/09/15 01:49:09;;;;;;;1.30;1.13;;;21.80;47.10;;;;;;4994330;28;20458;-69
2022/09/15 01:51:38;;;;;;;1.30;1.20;;;21.60;48.00;;;;;;5006947;28;20468;-69
2022/09/15 01:54:05;;;;;;;1.30;1.20;;;21.50;49.70;;;;;;5005028;28;20519;-68
2022/09/15 01:56:31;;;;;;;1.30;1.10;;;21.60;49.10;;;;;;4986024;28;20444;-68
2022/09/15 01:58:57;;;;;;;1.30;1.20;;;21.40;49.90;;;;;;4990080;28;20434;-68
2022/09/15 02:01:46;;;;;;;1.30;1.20;;;21.70;48.50;;;;;;5000735;28;20831;-68
2022/09/15 02:04:28;;;;;;;1.30;1.20;;;21.90;47.50;;;;;;4990653;28;20483;-68
2022/09/15 02:07:15;;;;;;;1.30;1.20;;;21.70;47.60;;;;;;4982482;28;20532;-68
2022/09/15 02:09:54;;;;;;;1.30;1.20;;;21.60;47.20;;;;;;4974704;28;20818;-68
2022/09/15 02:12:32;;;;;;;1.30;1.20;;;22.00;47.10;;;;;;4994384;28;20472;-69
2022/09/15 02:15:04;;;;;;;1.30;1.20;;;22.00;45.40;;;;;;4992147;28;20421;-68
2022/09/15 02:17:37;;;;;;;1.30;1.30;;;21.80;46.70;;;;;;4986495;28;20467;-68
2022/09/15 02:20:33;;;;;;;1.30;1.10;;;21.70;48.10;;;;;;4993961;28;20831;-68
2022/09/15 02:23:07;;;;;;;1.30;1.20;;;21.80;47.30;;;;;;4984157;28;21250;-68
2022/09/15 02:25:55;;;;;;;1.30;1.20;;;21.70;47.40;;;;;;4985310;28;20477;-68
2022/09/15 02:28:27;;;;;;;1.30;1.20;;;22.10;46.30;;;;;;4992218;28;20501;-68
2022/09/15 02:30:56;;;;;;;1.30;1.20;;;22.40;44.50;;;;;;4994305;28;20571;-68
2022/09/15 02:33:24;;;;;;;1.30;1.20;;;22.10;45.60;;;;;;4993392;28;20430;-68
2022/09/15 02:35:51;;;;;;;1.30;1.20;;;22.20;45.60;;;;;;4990182;28;20524;-68
2022/09/15 02:38:16;;;;;;;1.30;1.20;;;22.40;44.80;;;;;;4993189;28;20504;-69
2022/09/15 02:40:43;;;;;;;1.30;1.17;;;22.10;46.10;;;;;;4993290;28;20432;-68
2022/09/15 02:43:12;;;;;;;1.30;1.20;;;22.20;47.10;;;;;;4990616;28;20595;-68
2022/09/15 02:45:38;;;;;;;1.30;1.23;;;21.90;45.50;;;;;;4992360;28;20992;-68
2022/09/15 02:48:04;;;;;;;1.30;1.20;;;21.80;46.30;;;;;;4990848;28;20471;-68
2022/09/15 02:50:30;;;;;;;1.30;1.20;;;22.10;45.50;;;;;;4981927;28;20487;-68
2022/09/15 02:52:56;;;;;;;1.30;1.20;;;21.70;46.60;;;;;;4988614;28;20207;-68
2022/09/15 02:55:27;;;;;;;1.30;1.27;;;21.70;47.50;;;;;;4992913;28;20421;-68
2022/09/15 02:57:54;;;;;;;1.30;1.20;;;22.40;44.90;;;;;;4992373;28;20810;-69
2022/09/15 03:00:19;;;;;;;1.30;1.20;;;22.20;45.60;;;;;;4992529;28;20442;-68
2022/09/15 03:02:49;;;;;;;1.30;1.20;;;22.30;44.50;;;;;;4996134;28;20787;-68
2022/09/15 03:05:15;;;;;;;1.30;1.20;;;22.40;44.30;;;;;;5012297;28;20670;-68
2022/09/15 03:07:41;;;;;;;1.30;1.20;;;22.40;45.30;;;;;;4996121;28;20527;-70
2022/09/15 03:10:09;;;;;;;1.30;1.20;;;22.50;45.40;;;;;;4991129;28;20513;-68
2022/09/15 03:12:39;;;;;;;1.30;1.20;;;22.20;45.20;;;;;;4992481;28;20172;-68
2022/09/15 03:15:07;;;;;;;1.30;1.10;;;22.40;44.00;;;;;;4993571;28;20426;-68
2022/09/15 03:17:38;;;;;;;1.30;1.30;;;22.60;43.50;;;;;;4992711;28;20441;-68
2022/09/15 03:20:05;;;;;;;1.30;1.20;;;22.70;43.10;;;;;;4991358;28;20592;-69
2022/09/15 03:22:31;;;;;;;1.30;1.20;;;22.70;43.10;;;;;;4992412;28;20431;-68
2022/09/15 03:24:56;;;;;;;1.30;1.20;;;22.20;43.70;;;;;;4992662;28;20462;-68
2022/09/15 03:27:22;;;;;;;1.30;1.20;;;21.40;47.20;;;;;;4991688;28;20451;-68
2022/09/15 03:29:48;;;;;;;1.30;1.13;;;21.20;48.60;;;;;;4990384;28;20222;-68
2022/09/15 03:32:14;;;;;;;1.30;1.10;;;21.40;48.30;;;;;;4992052;28;20547;-69
2022/09/15 03:34:40;;;;;;;1.30;1.20;;;21.30;48.60;;;;;;4994254;28;20172;-68
2022/09/15 03:37:05;;;;;;;1.30;1.20;;;21.90;46.80;;;;;;5012136;28;20171;-68
2022/09/15 03:39:31;;;;;;;1.30;1.20;;;21.80;46.70;;;;;;4998508;28;20560;-68
2022/09/15 03:41:57;;;;;;;1.30;1.20;;;21.90;45.80;;;;;;4993340;28;20601;-68
2022/09/15 03:44:23;;;;;;;1.30;1.13;;;22.10;45.10;;;;;;4992468;28;20183;-68
2022/09/15 03:46:48;;;;;;;1.30;1.10;;;21.80;46.10;;;;;;4992663;28;20680;-69
2022/09/15 03:49:14;;;;;;;1.30;1.27;;;21.80;46.40;;;;;;4982360;28;20215;-68
2022/09/15 03:51:40;;;;;;;1.30;1.20;;;21.60;46.60;;;;;;4995199;28;20211;-68
2022/09/15 03:54:06;;;;;;;1.30;1.13;;;21.80;46.90;;;;;;5011565;28;20253;-68
2022/09/15 03:56:32;;;;;;;1.30;1.20;;;21.90;46.00;;;;;;5011412;28;20890;-68
2022/09/15 03:59:00;;;;;;;1.30;1.20;;;21.90;46.00;;;;;;4997039;28;20199;-68
2022/09/15 04:01:26;;;;;;;1.30;1.20;;;21.70;47.40;;;;;;4991876;28;20203;-68
2022/09/15 04:03:52;;;;;;;1.30;1.20;;;21.60;46.60;;;;;;5008102;28;20423;-67
2022/09/15 04:06:20;;;;;;;1.30;1.20;;;21.70;47.50;;;;;;5011351;28;20776;-68
2022/09/15 04:08:47;;;;;;;1.30;1.10;;;22.10;46.20;;;;;;4981996;28;20283;-67
2022/09/15 04:11:13;;;;;;;1.30;1.20;;;22.00;46.50;;;;;;4991504;28;20447;-68
2022/09/15 04:13:40;;;;;;;1.30;1.20;;;22.10;45.40;;;;;;5000469;28;20515;-67
2022/09/15 04:16:08;;;;;;;1.30;1.30;;;22.00;45.70;;;;;;5011796;28;20427;-67
2022/09/15 04:18:35;;;;;;;1.30;1.23;;;22.00;46.00;;;;;;5009957;28;20416;-68
2022/09/15 04:21:06;;;;;;;1.30;1.20;;;21.60;47.40;;;;;;4991058;28;20451;-69
2022/09/15 04:23:32;;;;;;;1.30;1.20;;;21.80;49.70;;;;;;4992925;28;20422;-68
2022/09/15 04:26:00;;;;;;;1.30;1.20;;;21.80;46.70;;;;;;4991702;28;20410;-68
2022/09/15 04:28:26;;;;;;;1.30;1.13;;;21.90;47.40;;;;;;4992008;28;20466;-68
2022/09/15 04:31:01;;;;;;;1.30;1.20;;;22.10;45.60;;;;;;4982850;28;20453;-68
2022/09/15 04:33:27;;;;;;;1.30;1.20;;;22.30;44.60;;;;;;4991853;28;20942;-68
2022/09/15 04:36:02;;;;;;;1.30;1.30;;;22.10;45.00;;;;;;5008558;28;20425;-68
2022/09/15 04:38:28;;;;;;;1.30;1.13;;;22.20;45.00;;;;;;4988731;28;20194;-67
2022/09/15 04:40:54;;;;;;;1.30;1.27;;;21.80;46.10;;;;;;4990239;28;20456;-68
2022/09/15 04:43:20;;;;;;;1.30;1.30;;;21.90;47.30;;;;;;4982763;28;20442;-69
2022/09/15 04:45:46;;;;;;;1.30;1.20;;;22.00;46.60;;;;;;4989743;28;20208;-69
2022/09/15 04:48:11;;;;;;;1.30;1.20;;;21.70;48.90;;;;;;4981938;28;20918;-68
2022/09/15 04:50:39;;;;;;;1.30;1.20;;;21.90;48.40;;;;;;4984927;28;20217;-68
2022/09/15 04:53:05;;;;;;;1.30;1.10;;;21.70;47.50;;;;;;4991169;28;20171;-68
2022/09/15 04:55:32;;;;;;;1.30;1.20;;;21.50;49.10;;;;;;4990327;28;20431;-68
2022/09/15 04:57:58;;;;;;;1.30;1.20;;;21.70;48.50;;;;;;4998068;28;21007;-68
2022/09/15 05:00:25;;;;;;;1.30;1.30;;;21.40;49.60;;;;;;4991946;28;20522;-69
2022/09/15 05:02:52;;;;;;;1.30;1.20;;;21.10;52.30;;;;;;4993276;28;20441;-67
2022/09/15 05:05:18;;;;;;;1.30;1.13;;;21.50;50.60;;;;;;4991290;28;20412;-68
2022/09/15 05:07:44;;;;;;;1.83;1.30;;;21.70;50.10;;;;;;4991481;28;20420;-68
2022/09/15 05:10:10;;;;;;;1.30;1.10;;;21.70;49.90;;;;;;4994474;28;20425;-68
2022/09/15 05:12:35;;;;;;;1.30;1.30;;;21.20;50.40;;;;;;4994004;28;20440;-67
2022/09/15 05:15:01;;;;;;;1.40;1.40;;;21.30;51.60;;;;;;4997717;28;20264;-68
2022/09/15 05:17:30;;;;;;;1.30;1.10;;;21.60;50.00;;;;;;4990570;28;20655;-68
2022/09/15 05:19:56;;;;;;;1.30;1.30;;;21.10;52.30;;;;;;4990655;28;20246;-68
2022/09/15 05:22:21;;;;;;;1.30;1.10;;;20.90;55.40;;;;;;4990723;28;20464;-68
2022/09/15 05:24:47;;;;;;;1.30;1.30;;;21.00;54.70;;;;;;4996326;28;20445;-69
2022/09/15 05:27:12;;;;;;;1.30;1.30;;;20.90;56.20;;;;;;4994633;28;20173;-69
2022/09/15 05:29:38;;;;;;;1.30;1.30;;;21.00;56.60;;;;;;5006578;28;20627;-68
2022/09/15 05:32:03;;;;;;;1.30;1.20;;;20.70;58.50;;;;;;5013662;28;20173;-69
2022/09/15 05:34:29;;;;;;;1.30;1.10;;;20.80;59.50;;;;;;4994536;28;20263;-66
2022/09/15 05:36:56;;;;;;;1.30;1.27;;;20.90;60.20;;;;;;4998133;28;20567;-66
2022/09/15 05:39:22;;;;;;;1.30;1.20;;;20.90;58.10;;;;;;5006862;28;20181;-66
2022/09/15 05:41:48;;;;;;;1.30;1.20;;;20.70;61.10;;;;;;5003144;28;20437;-66
2022/09/15 05:44:13;;;;;;;1.30;1.20;;;20.80;61.10;;;;;;4993272;28;20957;-67
2022/09/15 05:46:39;;;;;;;1.30;1.10;;;20.70;61.00;;;;;;5000672;28;20191;-70
2022/09/15 05:49:07;;;;;;;1.30;1.27;;;20.50;61.80;;;;;;5006776;28;20204;-67
2022/09/15 05:51:33;;;;;;;1.30;1.23;;;20.20;66.10;;;;;;4998289;28;20250;-66
2022/09/15 05:53:59;;;;;;;1.30;1.20;;;20.10;65.90;;;;;;4994062;28;20451;-67
2022/09/15 05:56:24;;;;;;;1.30;1.20;;;20.50;62.90;;;;;;4993820;28;20173;-66
2022/09/15 05:58:50;;;;;;;1.30;1.20;;;20.10;66.70;;;;;;4992359;28;20216;-67
2022/09/15 06:01:27;;;;;;;1.30;1.10;;;20.60;66.90;;;;;;4988394;28;20212;-67
2022/09/15 06:03:53;;;;;;;1.30;1.10;;;20.80;63.00;;;;;;4988525;28;20231;-67
2022/09/15 06:06:20;;;;;;;1.30;1.10;;;20.90;62.70;;;;;;4978860;28;20469;-66
2022/09/15 06:08:48;;;;;;;1.30;1.13;;;20.80;60.80;;;;;;4984780;28;20469;-66
2022/09/15 06:11:23;;;;;;;1.30;1.10;;;20.80;62.10;;;;;;4990322;28;20455;-67
2022/09/15 06:13:49;;;;;;;1.30;1.20;;;21.00;62.00;;;;;;4986686;28;20473;-67
2022/09/15 06:16:18;;;;;;;1.30;1.27;;;21.10;64.20;;;;;;4989247;28;20490;-66
2022/09/15 06:18:44;;;;;;;1.30;1.13;;;21.30;63.40;;;;;;4986035;28;20213;-66
2022/09/15 06:21:12;;;;;;;1.30;1.30;;;21.50;59.30;;;;;;4977660;28;21210;-67
2022/09/15 06:23:38;;;;;;;1.30;1.10;;;21.50;57.90;;;;;;4986101;28;20444;-67
2022/09/15 06:26:13;;;;;;;1.30;1.20;;;21.10;60.10;;;;;;4987366;28;20436;-67
2022/09/15 06:28:41;;;;;;;1.30;1.10;;;20.80;63.40;;;;;;4981036;28;20466;-67
2022/09/15 06:31:13;;;;;;;1.30;1.20;;;20.90;63.70;;;;;;4990013;28;20452;-71
2022/09/15 06:33:44;;;;;;;1.30;1.10;;;21.40;61.50;;;;;;4986293;28;20582;-67
2022/09/15 06:36:12;;;;;;;1.30;1.20;;;21.60;59.40;;;;;;4993326;28;20416;-66
2022/09/15 06:38:38;;;;;;;1.30;1.13;;;20.70;62.00;;;;;;4993561;28;20753;-67
2022/09/15 06:41:04;;;;;;;1.30;1.10;;;20.70;67.60;;;;;;4990859;28;20486;-67
2022/09/15 06:43:31;;;;;;;1.30;1.20;;;21.10;66.90;;;;;;4992412;28;20448;-66
2022/09/15 06:46:05;;;;;;;1.30;1.20;;;21.50;65.00;;;;;;4989845;28;20712;-67
2022/09/15 06:48:31;;;;;;;1.30;1.17;;;21.70;60.20;;;;;;4991225;28;20464;-66
2022/09/15 06:50:57;;;;;;;1.30;1.20;;;21.60;60.10;;;;;;4991065;28;21193;-67
2022/09/15 06:53:22;;;;;;;1.30;1.13;;;21.40;62.60;;;;;;4989877;28;20491;-67
2022/09/15 06:55:48;;;;;;;1.30;1.20;;;21.60;62.20;;;;;;4982243;28;20544;-67
2022/09/15 06:58:14;;;;;;;1.30;1.20;;;21.60;60.60;;;;;;4980200;28;20265;-67
2022/09/15 07:00:40;;;;;;;1.30;1.30;;;21.80;61.90;;;;;;4992153;28;20468;-66
2022/09/15 07:03:06;;;;;;;1.30;1.20;;;22.00;60.00;;;;;;4989779;28;20441;-67
2022/09/15 07:05:31;;;;;;;1.30;1.30;;;22.00;59.70;;;;;;4991562;28;20440;-68
2022/09/15 07:07:57;;;;;;;1.30;1.10;;;22.00;59.80;;;;;;4983466;28;20202;-67
2022/09/15 07:10:23;;;;;;;1.30;1.10;;;21.50;61.40;;;;;;4991345;28;20205;-66
2022/09/15 07:12:49;;;;;;;1.30;1.10;;;21.40;61.90;;;;;;4990097;28;20434;-66
2022/09/15 07:15:14;;;;;;;1.30;1.10;;;21.00;63.80;;;;;;4991525;28;20205;-66
2022/09/15 07:17:40;;;;;;;1.30;1.20;;;20.50;68.20;;;;;;4991728;28;20185;-66
2022/09/15 07:20:06;;;;;;;1.30;1.20;;;20.30;70.90;;;;;;4991558;28;20205;-68
2022/09/15 07:22:32;;;;;;;1.30;1.10;;;20.50;70.80;;;;;;4983684;28;20187;-67
2022/09/15 07:24:57;;;;;;;1.30;1.20;;;20.90;67.70;;;;;;4976736;28;20580;-66
2022/09/15 07:27:25;;;;;;;1.30;1.20;;;20.80;69.60;;;;;;4983620;28;20263;-67
2022/09/15 07:29:51;;;;;;;1.30;1.30;;;21.30;68.20;;;;;;4985675;28;20213;-68
2022/09/15 07:32:16;;;;;;;1.30;1.17;;;21.80;61.60;;;;;;4984119;28;20460;-66
2022/09/15 07:34:42;;;;;;;1.30;1.20;;;22.20;61.20;;;;;;4990298;28;20251;-66
2022/09/15 07:37:07;;;;;;;1.30;1.17;;;22.40;60.10;;;;;;4990082;28;20203;-66
2022/09/15 07:39:33;;;;;;;1.30;1.20;;;22.40;60.10;;;;;;4992425;28;20189;-66
2022/09/15 07:41:59;;;;;;;1.30;1.20;;;22.30;60.00;;;;;;4991959;28;20648;-67
2022/09/15 07:44:24;;;;;;;1.30;1.10;;;22.20;59.90;;;;;;4992284;28;20176;-67
2022/09/15 07:46:50;;;;;;;1.30;1.20;;;22.20;61.50;;;;;;4992150;28;20207;-67
2022/09/15 07:49:15;;;;;;;1.30;1.10;;;22.60;60.30;;;;;;4992138;28;20202;-67
2022/09/15 07:51:41;;;;;;;1.30;1.20;;;22.40;59.20;;;;;;4991963;28;20206;-67
2022/09/15 07:54:07;;;;;;;1.30;1.10;;;22.80;59.20;;;;;;4991776;28;20177;-67
2022/09/15 07:56:33;;;;;;;1.27;1.10;;;22.60;58.80;;;;;;4992357;28;20422;-67
2022/09/15 07:58:58;;;;;;;1.30;1.27;;;22.70;55.90;;;;;;4992002;28;20183;-68
2022/09/15 08:01:24;;;;;;;1.30;1.20;;;22.30;60.00;;;;;;4991928;28;20206;-66
2022/09/15 08:03:51;;;;;;;1.30;1.20;;;22.50;60.10;;;;;;4991726;28;20254;-66
2022/09/15 08:06:18;;;;;;;1.30;1.27;;;22.80;59.00;;;;;;4992585;28;20470;-66
2022/09/15 08:08:44;;;;;;;1.30;1.20;;;22.40;55.40;;;;;;4991675;28;20820;-67
2022/09/15 08:11:13;;;;;;;1.30;1.30;;;22.10;56.90;;;;;;4991674;28;20439;-66
2022/09/15 08:13:39;;;;;;;1.30;1.20;;;22.30;56.70;;;;;;4991795;28;20252;-66
2022/09/15 08:16:14;;;;;;;1.30;1.20;;;21.70;57.40;;;;;;4991767;28;20420;-66
2022/09/15 08:18:41;;;;;;;1.30;1.20;;;21.20;60.30;;;;;;4991843;28;20445;-66
2022/09/15 08:21:08;;;;;;;1.30;1.20;;;21.60;59.80;;;;;;4991545;28;20494;-66
2022/09/15 08:23:36;;;;;;;1.30;1.20;;;21.50;63.60;;;;;;4991689;28;20411;-67
2022/09/15 08:26:08;;;;;;;1.30;1.10;;;21.70;57.10;;;;;;4991747;28;20431;-67
2022/09/15 08:28:35;;;;;;;1.30;1.20;;;21.50;60.70;;;;;;4991666;28;20495;-66
2022/09/15 08:31:03;;;;;;;1.30;1.20;;;22.00;57.70;;;;;;4991526;28;20427;-66
2022/09/15 08:33:29;;;;;;;1.30;1.10;;;22.20;53.00;;;;;;4991572;28;20414;-67
2022/09/15 08:36:00;;;;;;;1.30;1.10;;;21.90;55.80;;;;;;4991529;28;20434;-66
2022/09/15 08:38:26;;;;;;;1.30;1.17;;;21.50;58.90;;;;;;4990738;28;20182;-67
2022/09/15 08:41:02;;;;;;;1.30;1.20;;;21.50;57.20;;;;;;4991437;28;20433;-66
2022/09/15 08:43:34;;;;;;;1.30;1.20;;;21.00;62.10;;;;;;4992331;28;20393;-66
2022/09/15 08:46:04;;;;;;;1.30;1.17;;;21.30;63.30;;;;;;4995207;28;20427;-67
2022/09/15 08:48:54;;;;;;;1.30;1.10;;;20.90;64.70;;;;;;4995486;28;20464;-66
2022/09/15 08:51:31;;;;;;;1.30;1.10;;;21.40;61.50;;;;;;4994871;28;20454;-67
2022/09/15 08:54:04;;;;;;;1.30;1.20;;;20.60;65.70;;;;;;4994848;28;20408;-67
2022/09/15 08:56:30;;;;;;;1.30;1.20;;;20.70;67.00;;;;;;4995317;28;20767;-67
2022/09/15 08:58:56;;;;;;;1.30;1.20;;;21.00;67.50;;;;;;4995102;28;20748;-67
2022/09/15 09:01:41;;;;;;;1.30;1.20;;;21.50;59.70;;;;;;4994809;28;20206;-67
2022/09/15 09:04:37;;;;;;;1.30;1.20;;;21.60;61.60;;;;;;4993395;28;20477;-67
2022/09/15 09:07:32;;;;;;;1.30;1.20;;;21.40;63.60;;;;;;4995015;28;20507;-67
2022/09/15 09:10:18;;;;;;;1.30;1.20;;;21.90;58.30;;;;;;4994773;28;20535;-67
2022/09/15 09:13:12;;;;;;;1.30;1.10;;;21.90;59.60;;;;;;4994027;28;20418;-67
2022/09/15 09:16:17;;;;;;;1.30;1.10;;;22.10;56.40;;;;;;4994832;28;20437;-67
2022/09/15 09:19:16;;;;;;;1.30;1.20;;;21.60;59.00;;;;;;4994634;28;20413;-67
2022/09/15 09:21:50;;;;;;;1.30;1.20;;;21.50;60.00;;;;;;4994198;28;20417;-67
2022/09/15 09:24:23;;;;;;;1.30;1.20;;;21.60;59.60;;;;;;4994378;28;20413;-67
2022/09/15 09:26:53;;;;;;;1.30;1.20;;;21.90;57.60;;;;;;4994775;28;20480;-68
2022/09/15 09:29:25;;;;;;;1.30;1.20;;;22.10;57.00;;;;;;4994851;28;20468;-68
2022/09/15 09:31:54;;;;;;;1.30;1.10;;;22.80;54.30;;;;;;4993934;28;20444;-68
2022/09/15 09:34:23;;;;;;;1.30;1.20;;;23.00;50.10;;;;;;4994411;28;20412;-68
2022/09/15 09:36:59;;;;;;;1.30;1.10;;;23.20;51.80;;;;;;4994050;28;20418;-68
2022/09/15 09:39:26;;;;;;;1.30;1.20;;;22.80;51.10;;;;;;4994435;28;20421;-68
2022/09/15 09:41:53;;;;;;;1.30;1.20;;;22.70;52.00;;;;;;4993875;28;20438;-68
2022/09/15 09:44:19;;;;;;;1.30;1.20;;;22.50;53.10;;;;;;4994251;28;20433;-68
2022/09/15 09:46:46;;;;;;;1.30;1.20;;;22.40;55.40;;;;;;4994219;28;20434;-68
2022/09/15 09:49:22;;;;;;;1.30;1.20;;;22.40;54.50;;;;;;4994325;28;20491;-68
2022/09/15 09:51:51;;;;;;;1.30;1.13;;;22.60;53.40;;;;;;4993489;28;20878;-68
2022/09/15 09:54:20;;;;;;;1.30;1.20;;;22.70;52.40;;;;;;4993740;28;20463;-68
2022/09/15 09:56:47;;;;;;;1.30;1.13;;;22.40;53.50;;;;;;4994081;28;21009;-68
2022/09/15 09:59:34;;;;;;;1.30;1.20;;;22.90;52.00;;;;;;4994034;28;20442;-68
2022/09/15 10:02:27;;;;;;;1.30;1.20;;;23.50;49.40;;;;;;4993418;28;20980;-68
2022/09/15 10:04:54;;;;;;;1.30;1.30;;;23.60;51.90;;;;;;4993760;28;20841;-68
2022/09/15 10:07:25;;;;;;;1.30;1.30;;;24.00;49.60;;;;;;4993695;28;20935;-68
2022/09/15 10:09:59;;;;;;;1.30;1.20;;;23.80;47.80;;;;;;4993582;28;20482;-68
2022/09/15 10:12:31;;;;;;;1.30;1.10;;;23.70;46.20;;;;;;4993530;28;20831;-68
2022/09/15 10:15:01;;;;;;;1.30;1.17;;;23.10;49.70;;;;;;4993322;28;20419;-68
2022/09/15 10:17:42;;;;;;;1.30;1.10;;;23.70;47.90;;;;;;4993971;28;20423;-68
2022/09/15 10:20:27;;;;;;;1.30;1.20;;;23.20;50.10;;;;;;4993861;28;20513;-68
2022/09/15 10:23:15;;;;;;;1.30;1.20;;;23.10;52.00;;;;;;4993215;28;20465;-68
2022/09/15 10:25:41;;;;;;;1.30;1.10;;;23.70;49.70;;;;;;4993340;28;20457;-68
2022/09/15 10:28:12;;;;;;;1.30;1.20;;;23.70;46.40;;;;;;4993300;28;20452;-68
2022/09/15 10:30:56;;;;;;;1.30;1.20;;;23.80;46.20;;;;;;4993426;28;20444;-68
2022/09/15 10:33:27;;;;;;;1.30;1.27;;;24.00;46.20;;;;;;4993264;28;20392;-68
2022/09/15 10:35:58;;;;;;;1.30;1.20;;;24.10;45.70;;;;;;4993317;28;20412;-68
2022/09/15 10:38:40;;;;;;;1.30;1.20;;;24.10;45.50;;;;;;4993485;28;20421;-68
2022/09/15 10:41:31;;;;;;;1.30;1.10;;;23.50;44.90;;;;;;4992816;28;20865;-68
2022/09/15 10:44:15;;;;;;;1.30;1.20;;;22.90;48.30;;;;;;4992690;28;20463;-68
2022/09/15 10:47:12;;;;;;;1.30;1.20;;;22.90;48.40;;;;;;4993114;28;20843;-68
2022/09/15 10:49:59;;;;;;;1.30;1.20;;;22.70;50.80;;;;;;4992992;28;20462;-68
2022/09/15 10:52:30;;;;;;;1.30;1.10;;;22.80;50.20;;;;;;4991283;28;20411;-68
2022/09/15 10:55:10;;;;;;;1.30;1.20;;;23.30;48.30;;;;;;4983311;28;20806;-68
2022/09/15 10:57:57;;;;;;;1.30;1.20;;;22.80;48.40;;;;;;4982600;28;20445;-68
2022/09/15 11:00:27;;;;;;;1.30;1.20;;;22.30;51.50;;;;;;4986179;28;20456;-68
2022/09/15 11:03:04;;;;;;;1.30;1.13;;;22.50;53.20;;;;;;4984932;28;20967;-68
2022/09/15 11:06:08;;;;;;;1.30;1.10;;;22.80;51.80;;;;;;4982248;28;20431;-69
2022/09/15 11:08:50;;;;;;;1.30;1.20;;;23.20;46.90;;;;;;4981978;28;20495;-70
2022/09/15 11:11:24;;;;;;;1.30;1.10;;;22.00;51.00;;;;;;4986073;28;20455;-70
2022/09/15 11:14:06;;;;;;;1.30;1.20;;;21.80;54.50;;;;;;4986847;28;20451;-70
2022/09/15 11:16:53;;;;;;;1.30;1.10;;;21.70;54.90;;;;;;4984606;28;20441;-69
2022/09/15 11:19:28;;;;;;;1.30;1.23;;;21.70;58.40;;;;;;4990104;28;20517;-70
2022/09/15 11:22:06;;;;;;;1.30;1.20;;;22.40;55.40;;;;;;4986428;28;20449;-70
2022/09/15 11:24:59;;;;;;;1.30;1.20;;;22.80;52.20;;;;;;4981923;28;20507;-69
2022/09/15 11:27:33;;;;;;;1.30;1.20;;;22.40;53.30;;;;;;4992677;28;20407;-69
2022/09/15 11:30:01;;;;;;;1.30;1.20;;;21.90;59.60;;;;;;4977532;28;20485;-71
2022/09/15 11:32:37;;;;;;;1.30;1.10;;;22.10;59.80;;;;;;4986181;28;20492;-69
2022/09/15 11:35:21;;;;;;;1.30;1.20;;;22.30;60.00;;;;;;4991528;28;20425;-69
2022/09/15 11:37:50;;;;;;;1.30;1.20;;;22.70;57.50;;;;;;4991917;28;20960;-70
2022/09/15 11:40:22;;;;;;;1.30;1.13;;;22.20;60.70;;;;;;4984305;28;21198;-70
2022/09/15 11:42:51;;;;;;;1.30;1.10;;;21.90;64.60;;;;;;4983072;28;20857;-70
2022/09/15 11:45:26;;;;;;;1.30;1.20;;;21.30;66.20;;;;;;4988843;28;20526;-70
2022/09/15 11:48:01;;;;;;;1.30;1.30;;;21.30;70.20;;;;;;4981984;28;20446;-70
2022/09/15 11:50:33;;;;;;;1.30;1.17;;;21.10;71.50;;;;;;4978701;28;21025;-67
2022/09/15 11:53:44;;;;;;;1.30;1.20;;;21.30;73.10;;;;;;4986328;28;20799;-68
2022/09/15 11:56:32;;;;;;;1.30;1.20;;;20.50;71.00;;;;;;4981635;28;20481;-68
2022/09/15 11:59:16;;;;;;;1.30;1.20;;;18.90;88.10;;;;;;4988986;28;20661;-67
2022/09/15 12:02:01;;;;;;;1.30;1.20;;;18.80;90.60;;;;;;4987745;28;20812;-67
2022/09/15 12:04:37;;;;;;;1.30;1.20;;;18.80;91.30;;;;;;4986043;28;20436;-67
2022/09/15 12:07:14;;;;;;;1.30;1.20;;;19.10;90.70;;;;;;4980617;28;20570;-67
2022/09/15 12:09:40;;;;;;;1.30;1.20;;;19.30;90.10;;;;;;4992666;28;20474;-68
2022/09/15 12:12:12;;;;;;;1.30;1.20;;;19.50;87.30;;;;;;4983301;28;20441;-68
2022/09/15 12:14:42;;;;;;;1.30;1.30;;;19.60;83.70;;;;;;4985575;28;20680;-68
2022/09/15 12:17:17;;;;;;;1.30;1.10;;;19.90;78.30;;;;;;4989122;28;20435;-67
2022/09/15 12:19:46;;;;;;;1.30;1.20;;;19.70;75.20;;;;;;4979346;28;20789;-68
2022/09/15 12:22:15;;;;;;;1.30;1.20;;;19.30;81.40;;;;;;4987009;28;20873;-68
2022/09/15 12:24:57;;;;;;;1.30;1.20;;;19.10;84.20;;;;;;4994732;28;20438;-68
2022/09/15 12:27:23;;;;;;;1.30;1.10;;;19.00;84.00;;;;;;4995652;28;20976;-67
2022/09/15 12:29:54;;;;;;;1.30;1.20;;;19.40;82.70;;;;;;4988463;28;20505;-68
2022/09/15 12:32:26;;;;;;;1.30;1.20;;;19.50;77.20;;;;;;4991277;28;20439;-68
2022/09/15 12:35:04;;;;;;;1.30;1.10;;;18.80;80.30;;;;;;4993835;28;20465;-67
2022/09/15 12:37:46;;;;;;;1.30;1.13;;;18.40;85.60;;;;;;4987098;28;20436;-67
2022/09/15 12:40:39;;;;;;;1.30;1.13;;;18.30;85.00;;;;;;4989815;28;20532;-68
2022/09/15 12:43:11;;;;;;;1.30;1.23;;;18.40;86.20;;;;;;4988120;28;20519;-68
2022/09/15 12:45:39;;;;;;;1.30;1.20;;;18.70;81.40;;;;;;4988973;28;20462;-67
2022/09/15 12:48:19;;;;;;;1.30;1.23;;;18.70;80.60;;;;;;4993479;28;20929;-68
2022/09/15 12:50:53;;;;;;;1.30;1.10;;;18.50;80.70;;;;;;4987107;28;20472;-68
2022/09/15 12:53:24;;;;;;;1.30;1.10;;;18.40;82.90;;;;;;4990937;28;20955;-68
2022/09/15 12:55:57;;;;;;;1.30;1.10;;;18.60;79.20;;;;;;4982823;28;20463;-68
2022/09/15 12:58:46;;;;;;;1.30;1.10;;;19.20;75.40;;;;;;4994730;28;20817;-67
2022/09/15 13:01:18;;;;;;;1.30;1.20;;;19.10;72.30;;;;;;4993872;28;20459;-68
2022/09/15 13:04:03;;;;;;;1.30;1.20;;;18.70;71.60;;;;;;4994503;28;20507;-67
2022/09/15 13:06:34;;;;;;;1.30;1.23;;;18.70;75.60;;;;;;4988576;28;20925;-68
2022/09/15 13:09:04;;;;;;;1.30;1.10;;;18.50;74.50;;;;;;4994424;28;20539;-68
2022/09/15 13:11:35;;;;;;;1.30;1.20;;;18.30;76.50;;;;;;4991768;28;20458;-67